createdAt,value
2018-07-13T00:02:22.640Z,21.30
2018-07-13T00:04:50.241Z,21.80
2018-07-13T00:07:18.586Z,23.42
2018-07-13T00:09:46.163Z,20.97
2018-07-13T00:12:13.789Z,21.50
2018-07-13T00:14:41.367Z,21.23
2018-07-13T00:17:08.952Z,18.73
2018-07-13T00:19:37.333Z,21.95
2018-07-13T00:22:04.902Z,21.07
2018-07-13T00:24:33.247Z,20.17
2018-07-13T00:27:00.871Z,20.37
2018-07-13T00:29:28.439Z,23.45
2018-07-13T00:31:56.013Z,22.47
2018-07-13T00:34:24.000Z,24.83
2018-07-13T00:36:51.576Z,22.87
2018-07-13T00:39:19.160Z,20.70
2018-07-13T00:41:47.553Z,24.90
2018-07-13T00:44:15.125Z,22.27
2018-07-13T00:46:42.698Z,21.73
2018-07-13T00:49:10.306Z,22.13
2018-07-13T00:51:37.878Z,20.83
2018-07-13T00:54:06.222Z,22.57
2018-07-13T00:56:33.847Z,23.10
2018-07-13T00:59:01.422Z,21.80
2018-07-13T01:01:29.001Z,21.93
2018-07-13T01:03:56.607Z,24.90
2018-07-13T01:06:24.948Z,24.27
2018-07-13T01:08:52.523Z,22.30
2018-07-13T01:11:20.131Z,22.03
2018-07-13T01:13:47.706Z,21.73
2018-07-13T01:16:15.278Z,22.90
2018-07-13T01:18:42.906Z,21.83
2018-07-13T01:21:11.253Z,21.27
2018-07-13T01:23:38.828Z,22.27
2018-07-13T01:26:06.439Z,23.47
2018-07-13T01:28:34.010Z,25.20
2018-07-13T01:31:01.595Z,25.13
2018-07-13T01:33:29.197Z,24.70
2018-07-13T01:35:56.768Z,27.50
2018-07-13T01:38:24.336Z,24.63
2018-07-13T01:40:51.958Z,22.83
2018-07-13T01:43:19.535Z,24.43
2018-07-13T01:45:47.873Z,24.97
2018-07-13T01:48:15.479Z,22.17
2018-07-13T01:50:43.819Z,25.50
2018-07-13T01:53:11.395Z,21.03
2018-07-13T01:55:39.035Z,20.63
2018-07-13T01:58:06.571Z,21.20
2018-07-13T02:00:34.138Z,21.17
2018-07-13T02:03:02.133Z,21.90
2018-07-13T02:05:29.706Z,21.60
2018-07-13T02:07:57.274Z,23.43
2018-07-13T02:10:24.885Z,23.60
2018-07-13T02:12:52.461Z,22.53
2018-07-13T02:15:20.035Z,22.73
2018-07-13T02:17:47.647Z,23.17
2018-07-13T02:20:15.978Z,22.27
2018-07-13T02:22:43.556Z,21.87
2018-07-13T02:25:11.516Z,23.87
2018-07-13T02:27:39.092Z,26.40
2018-07-13T02:30:06.657Z,24.70
2018-07-13T02:32:34.267Z,20.83
2018-07-13T02:35:01.850Z,23.53
2018-07-13T02:37:29.435Z,24.30
2018-07-13T02:39:57.038Z,25.77
2018-07-13T02:42:24.620Z,22.57
2018-07-13T02:44:52.194Z,24.00
2018-07-13T02:47:20.172Z,22.57
2018-07-13T02:49:47.744Z,24.00
2018-07-13T02:52:15.315Z,25.30
2018-07-13T02:54:42.932Z,25.25
2018-07-13T02:57:10.503Z,21.70
2018-07-13T02:59:38.079Z,22.07
2018-07-13T03:02:05.682Z,21.80
2018-07-13T03:04:34.025Z,22.40
2018-07-13T03:07:01.600Z,23.83
2018-07-13T03:09:29.231Z,21.97
2018-07-13T03:11:56.806Z,25.62
2018-07-13T03:14:24.393Z,23.37
2018-07-13T03:16:52.005Z,25.80
2018-07-13T03:19:19.582Z,25.67
2018-07-13T03:21:47.152Z,24.20
2018-07-13T03:24:14.755Z,24.10
2018-07-13T03:26:43.098Z,26.80
2018-07-13T03:29:10.684Z,25.50
2018-07-13T03:31:39.064Z,24.95
2018-07-13T03:34:06.640Z,21.90
2018-07-13T03:36:34.974Z,23.80
2018-07-13T03:39:02.580Z,23.07
2018-07-13T03:41:30.927Z,24.90
2018-07-13T03:43:58.513Z,22.97
2018-07-13T03:46:26.100Z,25.58
2018-07-13T03:48:53.676Z,22.20
2018-07-13T03:51:21.245Z,20.53
2018-07-13T03:53:48.872Z,23.97
2018-07-13T03:56:16.679Z,23.37
2018-07-13T03:58:44.246Z,22.70
2018-07-13T04:01:11.853Z,23.43
2018-07-13T04:03:40.192Z,23.70
2018-07-13T04:06:07.760Z,26.43
2018-07-13T04:08:35.365Z,21.40
2018-07-13T04:11:02.944Z,22.83
2018-07-13T04:13:30.513Z,22.33
2018-07-13T04:15:58.488Z,23.60
2018-07-13T04:18:26.057Z,27.50
2018-07-13T04:20:53.627Z,21.70
2018-07-13T04:23:21.240Z,25.03
2018-07-13T04:25:49.573Z,23.40
2018-07-13T04:28:17.150Z,25.70
2018-07-13T04:30:44.763Z,25.17
2018-07-13T04:33:12.827Z,27.45
2018-07-13T04:35:40.364Z,24.67
2018-07-13T04:38:09.116Z,24.73
2018-07-13T04:40:36.686Z,23.33
2018-07-13T04:43:04.249Z,24.90
2018-07-13T04:45:31.850Z,23.50
2018-07-13T04:48:00.188Z,21.73
2018-07-13T04:50:27.836Z,25.07
2018-07-13T04:52:56.155Z,23.47
2018-07-13T04:55:24.500Z,23.67
2018-07-13T04:57:52.065Z,23.67
2018-07-13T05:00:21.327Z,28.27
2018-07-13T05:02:48.893Z,23.83
2018-07-13T05:05:16.461Z,24.20
2018-07-13T05:07:44.061Z,23.40
2018-07-13T05:10:11.628Z,24.13
2018-07-13T05:12:39.195Z,22.20
2018-07-13T05:15:06.823Z,24.47
2018-07-13T05:17:34.377Z,23.70
2018-07-13T05:20:01.945Z,22.03
2018-07-13T05:22:29.563Z,22.87
2018-07-13T05:24:57.127Z,23.53
2018-07-13T05:27:24.707Z,20.70
2018-07-13T05:29:52.309Z,23.53
2018-07-13T05:32:19.880Z,24.33
2018-07-13T05:34:47.454Z,23.70
2018-07-13T05:37:16.044Z,19.87
2018-07-13T05:39:44.289Z,19.40
2018-07-13T05:42:11.857Z,18.40
2018-07-13T05:44:40.287Z,20.30
2018-07-13T05:47:07.856Z,22.80
2018-07-13T05:49:35.443Z,20.73
2018-07-13T05:52:03.026Z,19.03
2018-07-13T05:54:30.591Z,20.97
2018-07-13T05:56:58.164Z,23.20
2018-07-13T05:59:25.777Z,21.83
2018-07-13T06:01:53.345Z,20.00
2018-07-13T06:04:20.911Z,20.27
2018-07-13T06:06:48.523Z,21.93
2018-07-13T06:09:16.861Z,19.90
2018-07-13T06:11:44.428Z,19.97
2018-07-13T06:14:12.047Z,20.03
2018-07-13T06:16:39.613Z,21.30
2018-07-13T06:19:07.184Z,21.10
2018-07-13T06:21:34.803Z,22.20
2018-07-13T06:24:02.370Z,21.03
2018-07-13T06:26:30.754Z,20.08
2018-07-13T06:28:59.138Z,19.70
2018-07-13T06:31:27.510Z,21.73
2018-07-13T06:33:55.057Z,17.83
2018-07-13T06:36:22.683Z,18.00
2018-07-13T06:38:50.254Z,18.63
2018-07-13T06:41:17.832Z,21.93
2018-07-13T06:43:45.476Z,17.77
2018-07-13T06:46:13.056Z,20.80
2018-07-13T06:48:40.625Z,20.30
2018-07-13T06:51:08.253Z,20.83
2018-07-13T06:53:35.833Z,17.53
2018-07-13T06:56:03.403Z,19.23
2018-07-13T06:58:55.514Z,19.67
2018-07-13T07:01:23.087Z,17.03
2018-07-13T07:03:50.655Z,17.63
2018-07-13T07:06:18.649Z,19.73
2018-07-13T07:08:46.995Z,19.30
2018-07-13T07:11:14.586Z,18.00
2018-07-13T07:13:42.535Z,19.93
2018-07-13T07:16:10.105Z,19.60
2018-07-13T07:18:37.682Z,15.03
2018-07-13T07:21:05.335Z,16.03
2018-07-13T07:23:32.908Z,17.90
2018-07-13T07:26:01.243Z,19.77
2018-07-13T07:28:28.869Z,16.70
2018-07-13T07:30:56.438Z,16.67
2018-07-13T07:33:24.011Z,17.37
2018-07-13T07:35:51.631Z,18.30
2018-07-13T07:38:19.996Z,15.50
2018-07-13T07:40:47.540Z,15.07
2018-07-13T07:43:15.165Z,16.03
2018-07-13T07:45:42.739Z,18.42
2018-07-13T07:48:10.315Z,16.03
2018-07-13T07:50:37.971Z,13.93
2018-07-13T07:53:05.546Z,16.83
2018-07-13T07:55:33.120Z,16.57
2018-07-13T07:58:00.743Z,15.03
2018-07-13T08:00:28.311Z,22.00
2018-07-13T08:02:55.881Z,13.50
2018-07-13T08:05:24.347Z,11.30
2018-07-13T08:07:51.926Z,13.73
2018-07-13T08:10:19.509Z,11.90
2018-07-13T08:12:47.122Z,9.40
2018-07-13T08:15:14.696Z,10.37
2018-07-13T08:17:42.271Z,10.73
2018-07-13T08:20:09.888Z,10.03
2018-07-13T08:22:37.468Z,10.40
2018-07-13T08:25:05.038Z,11.03
2018-07-13T08:27:32.727Z,11.43
2018-07-13T08:30:00.257Z,11.07
2018-07-13T08:32:27.822Z,8.73
2018-07-13T08:34:55.436Z,11.40
2018-07-13T08:37:23.010Z,11.90
2018-07-13T08:39:51.342Z,10.43
2018-07-13T08:42:18.964Z,11.47
2018-07-13T08:44:47.301Z,10.00
2018-07-13T08:47:14.878Z,10.55
2018-07-13T08:49:42.531Z,13.33
2018-07-13T08:52:10.108Z,12.35
2018-07-13T08:54:37.678Z,12.35
2018-07-13T08:57:06.067Z,12.13
2018-07-13T08:59:34.403Z,11.73
2018-07-13T09:02:01.976Z,12.00
2018-07-13T09:04:29.615Z,15.10
2018-07-13T09:06:57.183Z,12.93
2018-07-13T09:09:24.749Z,11.07
2018-07-13T09:11:52.993Z,14.47
2018-07-13T09:14:20.493Z,15.67
2018-07-13T09:16:48.070Z,18.20
2018-07-13T09:19:17.341Z,13.70
2018-07-13T09:21:44.909Z,15.90
2018-07-13T09:24:12.574Z,14.67
2018-07-13T09:26:40.651Z,11.40
2018-07-13T09:29:08.218Z,14.20
2018-07-13T09:31:35.782Z,11.53
2018-07-13T09:34:03.825Z,15.00
2018-07-13T09:36:31.393Z,14.20
2018-07-13T09:38:58.991Z,13.67
2018-07-13T09:41:26.590Z,15.37
2018-07-13T09:43:54.486Z,15.17
2018-07-13T09:46:22.060Z,14.07
2018-07-13T09:48:49.713Z,13.20
2018-07-13T09:51:17.297Z,11.17
2018-07-13T09:53:44.961Z,11.20
2018-07-13T09:56:12.490Z,14.57
2018-07-13T09:58:40.063Z,13.03
2018-07-13T10:01:07.631Z,14.87
2018-07-13T10:03:35.247Z,16.12
2018-07-13T10:06:02.824Z,13.25
2018-07-13T10:08:30.387Z,13.13
2018-07-13T10:10:58.047Z,13.13
2018-07-13T10:13:26.392Z,13.97
2018-07-13T10:15:53.915Z,12.60
2018-07-13T10:18:21.890Z,12.43
2018-07-13T10:20:49.573Z,18.27
2018-07-13T10:23:17.027Z,10.13
2018-07-13T10:25:44.640Z,11.88
2018-07-13T10:28:12.207Z,11.13
2018-07-13T10:30:39.773Z,10.13
2018-07-13T10:33:07.415Z,8.23
2018-07-13T10:35:35.040Z,8.73
2018-07-13T10:38:02.549Z,6.93
2018-07-13T10:40:30.544Z,8.57
2018-07-13T10:42:58.112Z,13.30
2018-07-13T10:45:25.703Z,9.57
2018-07-13T10:47:53.283Z,8.63
2018-07-13T10:50:20.851Z,8.80
2018-07-13T10:52:48.416Z,9.07
2018-07-13T10:55:16.029Z,7.93
2018-07-13T10:57:43.592Z,10.23
2018-07-13T11:00:11.155Z,9.57
2018-07-13T11:02:40.137Z,7.10
2018-07-13T11:05:07.697Z,8.80
2018-07-13T11:07:35.260Z,10.07
2018-07-13T11:10:02.877Z,9.97
2018-07-13T11:12:30.452Z,6.93
2018-07-13T11:14:58.017Z,8.70
2018-07-13T11:17:25.658Z,8.80
2018-07-13T11:19:53.235Z,9.73
2018-07-13T11:22:20.800Z,8.73
2018-07-13T11:24:48.444Z,7.70
2018-07-13T11:27:16.019Z,7.40
2018-07-13T11:29:43.592Z,8.30
2018-07-13T11:32:11.188Z,8.23
2018-07-13T11:34:38.762Z,8.27
2018-07-13T11:37:07.300Z,6.95
2018-07-13T11:39:34.710Z,5.37
2018-07-13T11:42:03.046Z,10.23
2018-07-13T11:44:30.619Z,6.73
2018-07-13T11:46:58.235Z,7.27
2018-07-13T11:49:25.797Z,6.50
2018-07-13T11:51:53.363Z,6.87
2018-07-13T11:54:21.625Z,6.60
2018-07-13T11:56:49.148Z,6.70
2018-07-13T11:59:16.709Z,6.20
2018-07-13T12:01:44.383Z,6.50
2018-07-13T12:04:11.897Z,4.83
2018-07-13T12:06:39.465Z,6.70
2018-07-13T12:09:07.438Z,5.97
2018-07-13T12:11:35.008Z,5.00
2018-07-13T12:14:02.578Z,5.63
2018-07-13T12:16:30.549Z,6.87
2018-07-13T12:18:58.116Z,6.93
2018-07-13T12:21:25.687Z,7.12
2018-07-13T12:23:53.329Z,5.72
2018-07-13T12:26:20.861Z,9.20
2018-07-13T12:28:48.426Z,9.10
2018-07-13T12:31:16.034Z,6.40
2018-07-13T12:33:43.597Z,3.33
2018-07-13T12:36:11.164Z,4.00
2018-07-13T12:38:38.813Z,7.77
2018-07-13T12:41:06.382Z,5.63
2018-07-13T12:43:33.948Z,5.07
2018-07-13T12:46:02.071Z,4.87
2018-07-13T12:48:29.571Z,6.60
2018-07-13T12:50:57.143Z,4.80
2018-07-13T12:53:25.531Z,4.47
2018-07-13T12:55:53.862Z,5.13
2018-07-13T12:58:21.436Z,5.37
2018-07-13T13:00:49.404Z,6.70
2018-07-13T13:03:16.969Z,8.70
2018-07-13T13:05:44.539Z,5.63
2018-07-13T13:08:12.172Z,5.47
2018-07-13T13:10:39.716Z,5.40
2018-07-13T13:13:07.286Z,4.73
2018-07-13T13:15:35.285Z,4.00
2018-07-13T13:18:02.856Z,5.47
2018-07-13T13:20:30.426Z,5.43
2018-07-13T13:22:58.073Z,4.57
2018-07-13T13:25:25.637Z,4.43
2018-07-13T13:27:53.208Z,6.33
2018-07-13T13:30:21.178Z,5.83
2018-07-13T13:32:48.943Z,7.17
2018-07-13T13:35:16.507Z,4.17
2018-07-13T13:37:44.120Z,3.87
2018-07-13T13:40:11.681Z,4.73
2018-07-13T13:42:39.243Z,4.43
2018-07-13T13:45:06.889Z,5.13
2018-07-13T13:47:34.454Z,3.73
2018-07-13T13:50:02.023Z,4.33
2018-07-13T13:52:29.997Z,3.87
2018-07-13T13:55:01.968Z,5.10
2018-07-13T13:57:28.925Z,3.97
2018-07-13T13:59:56.676Z,5.10
2018-07-13T14:02:24.137Z,5.37
2018-07-13T14:04:51.703Z,3.40
2018-07-13T14:07:19.310Z,4.67
2018-07-13T14:09:46.877Z,3.90
2018-07-13T14:12:16.337Z,5.23
2018-07-13T14:14:42.862Z,5.90
2018-07-13T14:17:10.405Z,7.90
2018-07-13T14:19:37.979Z,6.43
2018-07-13T14:22:05.877Z,5.70
2018-07-13T14:24:33.445Z,4.57
2018-07-13T14:27:01.004Z,3.90
2018-07-13T14:29:28.634Z,5.20
2018-07-13T14:31:56.202Z,7.68
2018-07-13T14:34:23.803Z,7.77
2018-07-13T14:36:51.378Z,6.40
2018-07-13T14:39:19.716Z,6.23
2018-07-13T14:41:47.284Z,5.90
2018-07-13T14:44:14.896Z,5.97
2018-07-13T14:46:42.506Z,4.62
2018-07-13T14:49:10.368Z,4.50
2018-07-13T14:51:38.007Z,5.27
2018-07-13T14:54:05.571Z,3.63
2018-07-13T14:56:33.138Z,3.60
2018-07-13T14:59:01.643Z,4.60
2018-07-13T15:01:29.212Z,7.43
2018-07-13T15:03:56.839Z,4.73
2018-07-13T15:06:24.575Z,4.63
2018-07-13T15:08:51.967Z,4.80
2018-07-13T15:11:19.530Z,6.10
2018-07-13T15:13:47.132Z,3.63
2018-07-13T15:16:14.701Z,3.70
2018-07-13T15:18:42.267Z,4.60
2018-07-13T15:21:11.024Z,4.33
2018-07-13T15:23:38.591Z,4.80
2018-07-13T15:26:06.159Z,4.97
2018-07-13T15:28:33.803Z,4.57
2018-07-13T15:31:01.374Z,5.90
2018-07-13T15:33:28.939Z,4.73
2018-07-13T15:35:56.582Z,5.60
2018-07-13T15:38:24.145Z,4.33
2018-07-13T15:40:51.704Z,3.43
2018-07-13T15:43:19.718Z,3.37
2018-07-13T15:45:47.222Z,4.53
2018-07-13T15:48:14.785Z,3.67
2018-07-13T15:50:43.392Z,3.73
2018-07-13T15:53:10.959Z,5.67
2018-07-13T15:55:38.522Z,4.23
2018-07-13T15:58:06.634Z,4.80
2018-07-13T16:00:34.969Z,4.77
2018-07-13T16:03:02.534Z,4.10
2018-07-13T16:05:30.200Z,6.37
2018-07-13T16:07:57.713Z,5.33
2018-07-13T16:10:25.610Z,5.33
2018-07-13T16:12:53.219Z,6.40
2018-07-13T16:15:21.553Z,5.30
2018-07-13T16:17:49.138Z,4.73
2018-07-13T16:20:17.277Z,5.90
2018-07-13T16:22:44.840Z,5.50
2018-07-13T16:25:12.412Z,6.13
2018-07-13T16:27:40.020Z,6.83
2018-07-13T16:30:07.581Z,7.77
2018-07-13T16:32:35.918Z,10.07
2018-07-13T16:35:03.536Z,4.90
2018-07-13T16:37:31.110Z,5.20
2018-07-13T16:39:58.667Z,7.63
2018-07-13T16:42:26.682Z,5.70
2018-07-13T16:44:54.251Z,4.80
2018-07-13T16:47:21.821Z,5.05
2018-07-13T16:49:49.425Z,4.70
2018-07-13T16:52:16.993Z,4.90
2018-07-13T16:54:44.561Z,5.90
2018-07-13T16:57:12.170Z,4.67
2018-07-13T16:59:39.742Z,4.97
2018-07-13T17:02:08.076Z,5.23
2018-07-13T17:04:36.569Z,6.37
2018-07-13T17:07:04.133Z,6.03
2018-07-13T17:09:31.705Z,5.03
2018-07-13T17:11:59.340Z,7.53
2018-07-13T17:14:26.911Z,5.37
2018-07-13T17:16:54.476Z,4.53
2018-07-13T17:19:22.093Z,4.17
2018-07-13T17:21:49.654Z,4.68
2018-07-13T17:24:17.240Z,3.90
2018-07-13T17:26:44.845Z,5.57
2018-07-13T17:29:12.575Z,5.10
2018-07-13T17:31:40.125Z,4.93
2018-07-13T17:34:07.725Z,4.13
2018-07-13T17:36:35.292Z,4.17
2018-07-13T17:39:02.857Z,4.00
2018-07-13T17:41:30.485Z,5.10
2018-07-13T17:43:58.047Z,4.47
2018-07-13T17:46:25.614Z,4.23
2018-07-13T17:48:53.218Z,4.37
2018-07-13T17:51:21.543Z,4.28
2018-07-13T17:53:49.146Z,3.43
2018-07-13T17:56:16.727Z,3.33
2018-07-13T17:58:45.099Z,4.30
2018-07-13T18:01:12.631Z,3.57
2018-07-13T18:03:40.247Z,5.43
2018-07-13T18:06:07.858Z,4.83
2018-07-13T18:08:35.421Z,4.43
2018-07-13T18:11:03.036Z,3.70
2018-07-13T18:13:30.924Z,3.50
2018-07-13T18:15:58.494Z,4.67
2018-07-13T18:18:26.144Z,4.07
2018-07-13T18:20:53.716Z,3.30
2018-07-13T18:23:21.280Z,4.93
2018-07-13T18:25:48.905Z,3.87
2018-07-13T18:28:16.548Z,6.20
2018-07-13T18:30:44.030Z,6.10
2018-07-13T18:33:11.654Z,3.20
2018-07-13T18:35:39.214Z,5.27
2018-07-13T18:38:06.782Z,4.83
2018-07-13T18:40:35.168Z,3.97
2018-07-13T18:43:03.511Z,3.80
2018-07-13T18:45:31.105Z,7.10
2018-07-13T18:47:58.674Z,3.73
2018-07-13T18:50:27.009Z,4.33
2018-07-13T18:52:54.593Z,4.07
2018-07-13T18:55:23.021Z,3.97
2018-07-13T18:57:50.584Z,4.47
2018-07-13T19:00:18.151Z,4.13
2018-07-13T19:02:46.147Z,4.77
2018-07-13T19:05:13.718Z,5.40
2018-07-13T19:07:41.289Z,5.55
2018-07-13T19:10:09.349Z,4.95
2018-07-13T19:12:36.916Z,5.13
2018-07-13T19:15:04.486Z,5.40
2018-07-13T19:17:32.644Z,5.78
2018-07-13T19:20:00.215Z,10.10
2018-07-13T19:22:27.874Z,5.47
2018-07-13T19:24:56.091Z,4.82
2018-07-13T19:27:24.423Z,6.87
2018-07-13T19:29:51.999Z,5.13
2018-07-13T19:32:19.610Z,4.87
2018-07-13T19:34:47.178Z,4.43
2018-07-13T19:37:14.747Z,4.20
2018-07-13T19:39:42.365Z,5.20
2018-07-13T19:42:09.934Z,5.53
2018-07-13T19:44:38.259Z,5.13
2018-07-13T19:47:05.878Z,6.03
2018-07-13T19:49:34.224Z,6.27
2018-07-13T19:52:01.797Z,4.67
2018-07-13T19:54:30.215Z,5.70
2018-07-13T19:56:57.833Z,4.43
2018-07-13T19:59:25.338Z,6.07
2018-07-13T20:01:52.952Z,5.27
2018-07-13T20:04:20.532Z,5.03
2018-07-13T20:06:48.869Z,5.60
2018-07-13T20:09:16.476Z,4.07
2018-07-13T20:11:44.813Z,4.93
2018-07-13T20:14:12.381Z,4.00
2018-07-13T20:16:40.002Z,3.80
2018-07-13T20:19:07.606Z,5.70
2018-07-13T20:21:35.179Z,4.35
2018-07-13T20:24:02.795Z,3.97
2018-07-13T20:26:30.400Z,3.70
2018-07-13T20:28:57.927Z,3.47
2018-07-13T20:31:26.435Z,3.60
2018-07-13T20:33:54.007Z,3.37
2018-07-13T20:36:21.570Z,3.83
2018-07-13T20:38:49.175Z,8.60
2018-07-13T20:41:16.774Z,5.93
2018-07-13T20:43:44.310Z,5.60
2018-07-13T20:46:11.917Z,5.87
2018-07-13T20:48:39.486Z,5.77
2018-07-13T20:51:07.059Z,4.77
2018-07-13T20:53:34.678Z,4.40
2018-07-13T20:56:02.251Z,5.83
2018-07-13T20:58:29.863Z,4.30
2018-07-13T21:00:58.294Z,4.90
2018-07-13T21:03:25.863Z,4.00
2018-07-13T21:05:53.433Z,4.77
2018-07-13T21:08:21.493Z,7.75
2018-07-13T21:10:49.079Z,4.80
2018-07-13T21:13:16.647Z,6.22
2018-07-13T21:15:45.016Z,4.50
2018-07-13T21:18:13.360Z,4.10
2018-07-13T21:20:40.927Z,5.37
2018-07-13T21:23:08.537Z,6.40
2018-07-13T21:25:36.106Z,5.25
2018-07-13T21:28:03.668Z,4.77
2018-07-13T21:30:31.670Z,6.37
2018-07-13T21:32:59.243Z,7.20
2018-07-13T21:35:26.806Z,4.70
2018-07-13T21:37:54.416Z,4.70
2018-07-13T21:40:22.748Z,4.97
2018-07-13T21:42:50.334Z,5.03
2018-07-13T21:45:18.780Z,5.93
2018-07-13T21:47:46.282Z,4.53
2018-07-13T21:50:14.618Z,4.37
2018-07-13T21:52:42.212Z,5.50
2018-07-13T21:55:09.783Z,5.27
2018-07-13T21:57:38.118Z,5.37
2018-07-13T22:00:05.716Z,4.93
2018-07-13T22:02:33.386Z,4.77
2018-07-13T22:05:00.852Z,4.67
2018-07-13T22:07:29.603Z,4.27
2018-07-13T22:09:57.164Z,3.77
2018-07-13T22:12:24.734Z,4.57
2018-07-13T22:14:52.341Z,6.50
2018-07-13T22:17:19.909Z,4.77
2018-07-13T22:19:47.482Z,7.13
2018-07-13T22:22:15.094Z,4.20
2018-07-13T22:24:42.658Z,6.47
2018-07-13T22:27:11.000Z,4.80
2018-07-13T22:29:38.621Z,4.90
2018-07-13T22:32:06.188Z,7.67
2018-07-13T22:34:33.755Z,4.93
2018-07-13T22:37:01.359Z,4.73
2018-07-13T22:39:28.931Z,4.30
2018-07-13T22:41:56.497Z,4.75
2018-07-13T22:44:24.102Z,6.60
2018-07-13T22:46:51.676Z,5.80
2018-07-13T22:49:19.251Z,4.97
2018-07-13T22:51:47.240Z,4.97
2018-07-13T22:54:14.809Z,8.20
2018-07-13T22:56:42.383Z,7.33
2018-07-13T22:59:09.985Z,6.82
2018-07-13T23:01:37.553Z,4.80
2018-07-13T23:04:05.122Z,5.83
2018-07-13T23:06:33.011Z,5.13
2018-07-13T23:09:00.794Z,7.67
2018-07-13T23:11:28.363Z,7.70
2018-07-13T23:13:56.410Z,7.93
2018-07-13T23:16:23.982Z,6.80
2018-07-13T23:18:51.549Z,6.17
2018-07-13T23:21:19.157Z,6.20
2018-07-13T23:23:47.068Z,5.82
2018-07-13T23:26:14.614Z,5.30
2018-07-13T23:28:42.221Z,5.87
2018-07-13T23:31:10.554Z,5.70
2018-07-13T23:33:38.883Z,6.43
2018-07-13T23:36:07.634Z,5.60
2018-07-13T23:38:35.207Z,5.90
2018-07-13T23:41:02.772Z,6.37
2018-07-13T23:43:30.394Z,5.50
2018-07-13T23:45:57.958Z,6.20
2018-07-13T23:48:25.532Z,6.73
2018-07-13T23:50:53.132Z,9.77
2018-07-13T23:53:21.469Z,6.90
2018-07-13T23:55:49.032Z,6.70
2018-07-13T23:58:17.527Z,8.27
